Time;durP1;ratioP1;P1;durP2;ratioP2;P2;SDS_P1;SDS_P2;PMS_P1;PMS_P2;Temp;Humidity;BMP_temperature;BMP_pressure;BME280_temperature;BME280_humidity;BME280_pressure;Samples;Min_cycle;Max_cycle;Signal;HPM_P1;HPM_P2
2023/08/27 00:01:17;;;;;;;21.60;13.70;;;;;;;18.41;100.00;99351.71;109014;1258;59421;-59
2023/08/27 00:04:03;;;;;;;20.70;13.40;;;;;;;18.36;100.00;99359.04;109038;1259;60228;-60
2023/08/27 00:06:50;;;;;;;22.00;14.80;;;;;;;18.31;100.00;99359.13;109048;1258;72119;-60
2023/08/27 00:09:37;;;;;;;22.60;14.00;;;;;;;18.27;100.00;99372.36;109065;1258;68905;-60
2023/08/27 00:12:23;;;;;;;24.50;14.70;;;;;;;18.21;100.00;99385.50;109045;1258;71904;-60
2023/08/27 00:15:09;;;;;;;21.20;13.50;;;;;;;18.15;100.00;99380.91;109025;1258;60527;-60
2023/08/27 00:17:56;;;;;;;23.20;13.40;;;;;;;18.11;100.00;99383.17;109028;1258;61344;-59
2023/08/27 00:20:45;;;;;;;18.60;11.90;;;;;;;18.06;100.00;99384.76;109022;1258;72870;-63
2023/08/27 00:23:31;;;;;;;19.80;13.10;;;;;;;18.01;100.00;99388.04;109070;1257;67878;-60
2023/08/27 00:26:18;;;;;;;20.90;13.20;;;;;;;17.97;100.00;99391.76;109015;1258;72786;-60
2023/08/27 00:29:04;;;;;;;18.50;11.40;;;;;;;17.91;100.00;99378.96;109032;1258;59317;-59
2023/08/27 00:31:50;;;;;;;18.10;11.90;;;;;;;17.85;100.00;99377.57;109048;1258;61612;-60
2023/08/27 00:34:36;;;;;;;16.70;9.90;;;;;;;17.80;100.00;99381.05;109090;1258;74039;-59
2023/08/27 00:37:22;;;;;;;17.50;11.20;;;;;;;17.75;100.00;99397.95;108998;1258;66457;-59
2023/08/27 00:40:09;;;;;;;19.80;11.80;;;;;;;17.69;100.00;99401.48;109038;1258;73716;-61
2023/08/27 00:42:56;;;;;;;19.70;11.70;;;;;;;17.65;100.00;99386.84;108995;1259;59208;-59
2023/08/27 00:45:43;;;;;;;18.70;10.90;;;;;;;17.62;100.00;99390.95;109068;1259;60654;-60
2023/08/27 00:48:29;;;;;;;18.70;11.30;;;;;;;17.60;100.00;99404.83;108957;1261;73002;-59
2023/08/27 00:51:16;;;;;;;20.10;12.40;;;;;;;17.56;100.00;99411.63;109036;1257;67183;-59
2023/08/27 00:54:04;;;;;;;18.50;11.10;;;;;;;17.53;100.00;99409.60;109093;1257;73693;-57
2023/08/27 00:56:51;;;;;;;17.80;10.90;;;;;;;17.49;100.00;99399.68;109118;1257;59116;-59
2023/08/27 00:59:38;;;;;;;17.10;10.80;;;;;;;17.51;100.00;99398.96;109028;1257;60254;-62
2023/08/27 01:02:24;;;;;;;18.40;11.90;;;;;;;17.49;100.00;99398.10;109125;1257;73028;-59
2023/08/27 01:05:12;;;;;;;17.30;11.20;;;;;;;17.47;100.00;99408.23;109114;1257;67631;-60
2023/08/27 01:08:21;;;;;;;18.20;11.10;;;;;;;17.44;100.00;99412.66;109024;1257;72608;-60
2023/08/27 01:11:25;;;;;;;17.60;10.90;;;;;;;17.41;100.00;99414.80;109087;1257;58270;-60
2023/08/27 01:14:16;;;;;;;15.10;9.80;;;;;;;17.39;100.00;99404.97;108983;1259;60389;-60
2023/08/27 01:17:03;;;;;;;17.30;10.80;;;;;;;17.38;100.00;99404.07;109011;1257;71841;-61
2023/08/27 01:19:50;;;;;;;17.10;10.10;;;;;;;17.37;100.00;99406.86;109123;1257;67937;-59
2023/08/27 01:22:37;;;;;;;18.00;10.30;;;;;;;17.34;100.00;99417.58;109093;1257;72746;-59
2023/08/27 01:25:34;;;;;;;16.80;9.50;;;;;;;17.31;100.00;99414.50;109078;1257;59735;-59
2023/08/27 01:28:33;;;;;;;15.00;8.60;;;;;;;17.28;100.00;99414.52;109066;1259;60488;-60
2023/08/27 01:31:24;;;;;;;17.20;9.50;;;;;;;17.26;100.00;99397.66;109045;1258;71560;-60
2023/08/27 01:34:12;;;;;;;15.50;8.90;;;;;;;17.26;100.00;99389.06;109042;1258;68953;-60
2023/08/27 01:36:59;;;;;;;15.90;8.90;;;;;;;17.26;100.00;99383.05;108987;1259;72828;-60
2023/08/27 01:39:45;;;;;;;15.10;8.30;;;;;;;17.20;100.00;99385.92;108952;1258;58353;-58
2023/08/27 01:42:33;;;;;;;16.00;8.30;;;;;;;17.18;100.00;99393.92;109027;1258;60412;-60
2023/08/27 01:45:19;;;;;;;14.20;8.10;;;;;;;17.14;100.00;99393.30;109004;1259;73448;-60
2023/08/27 01:48:05;;;;;;;15.20;7.70;;;;;;;17.12;100.00;99385.88;109037;1258;66609;-61
2023/08/27 01:50:52;;;;;;;13.40;7.50;;;;;;;17.08;100.00;99379.55;109055;1258;73540;-59
2023/08/27 01:53:38;;;;;;;12.70;7.10;;;;;;;17.05;100.00;99380.60;109056;1257;58311;-60
2023/08/27 01:56:25;;;;;;;13.10;7.60;;;;;;;17.04;100.00;99383.27;109121;1257;59304;-59
2023/08/27 01:59:11;;;;;;;13.40;7.60;;;;;;;17.01;100.00;99392.48;109132;1257;72986;-61
2023/08/27 02:01:57;;;;;;;12.80;7.90;;;;;;;16.98;100.00;99405.44;109038;1257;66391;-60
2023/08/27 02:04:43;;;;;;;13.10;7.10;;;;;;;16.97;100.00;99409.08;109092;1257;72548;-60
2023/08/27 02:07:30;;;;;;;14.50;8.00;;;;;;;16.96;100.00;99412.48;109090;1257;58419;-60
2023/08/27 02:10:17;;;;;;;14.10;7.50;;;;;;;16.94;100.00;99408.19;109145;1257;61291;-64
2023/08/27 02:13:03;;;;;;;13.10;7.20;;;;;;;16.93;100.00;99399.30;109128;1257;71691;-60
2023/08/27 02:15:49;;;;;;;16.90;8.50;;;;;;;16.94;100.00;99404.05;109097;1257;66578;-59
2023/08/27 02:18:36;;;;;;;16.60;7.00;;;;;;;16.96;100.00;99401.73;109146;1257;73566;-58
2023/08/27 02:21:22;;;;;;;12.70;7.50;;;;;;;16.95;100.00;99395.15;109092;1257;60645;-60
2023/08/27 02:24:08;;;;;;;12.50;7.10;;;;;;;16.95;100.00;99389.61;109118;1257;60276;-60
2023/08/27 02:26:54;;;;;;;13.30;7.00;;;;;;;16.94;100.00;99376.54;109065;1257;73014;-59
2023/08/27 02:29:41;;;;;;;13.60;7.40;;;;;;;16.91;100.00;99375.61;109115;1257;67805;-60
2023/08/27 02:32:27;;;;;;;15.40;6.30;;;;;;;16.89;100.00;99383.05;109069;1258;73756;-60
2023/08/27 02:35:13;;;;;;;13.20;6.50;;;;;;;16.85;100.00;99390.33;109018;1258;59562;-63
2023/08/27 02:38:00;;;;;;;13.30;6.60;;;;;;;16.82;100.00;99383.06;109051;1258;61170;-59
2023/08/27 02:40:46;;;;;;;11.40;5.90;;;;;;;16.78;100.00;99380.66;109121;1259;72735;-60
2023/08/27 02:43:32;;;;;;;12.50;6.20;;;;;;;16.76;100.00;99377.65;109083;1257;67714;-59
2023/08/27 02:46:19;;;;;;;11.70;5.40;;;;;;;16.74;100.00;99374.60;109116;1257;71584;-59
2023/08/27 02:49:05;;;;;;;13.40;6.00;;;;;;;16.75;100.00;99371.85;109105;1257;57729;-60
2023/08/27 02:51:51;;;;;;;11.20;5.80;;;;;;;16.74;100.00;99380.76;109056;1257;61080;-60
2023/08/27 02:54:37;;;;;;;11.10;5.60;;;;;;;16.74;100.00;99400.10;109109;1257;73007;-59
2023/08/27 02:57:23;;;;;;;10.90;6.00;;;;;;;16.75;100.00;99409.63;109099;1257;68883;-59
2023/08/27 03:00:12;;;;;;;10.30;5.10;;;;;;;16.76;100.00;99422.92;109078;1257;73525;-60
2023/08/27 03:02:58;;;;;;;10.70;5.40;;;;;;;16.76;100.00;99424.00;109080;1257;60602;-61
2023/08/27 03:05:46;;;;;;;9.30;4.90;;;;;;;16.77;100.00;99424.77;109091;1257;60154;-59
2023/08/27 03:08:32;;;;;;;11.70;5.90;;;;;;;16.80;100.00;99425.33;109113;1257;72976;-60
2023/08/27 03:11:18;;;;;;;10.40;4.90;;;;;;;16.82;100.00;99431.06;109101;1257;68967;-58
2023/08/27 03:14:05;;;;;;;9.50;4.60;;;;;;;16.82;100.00;99432.96;109132;1257;72726;-60
2023/08/27 03:16:50;;;;;;;9.30;4.50;;;;;;;16.83;100.00;99435.52;109122;1257;58279;-61
2023/08/27 03:19:37;;;;;;;8.80;3.90;;;;;;;16.86;100.00;99433.08;109110;1259;61340;-59
2023/08/27 03:22:23;;;;;;;9.60;4.00;;;;;;;16.86;100.00;99443.64;109101;1257;73803;-59
2023/08/27 03:25:09;;;;;;;9.00;4.00;;;;;;;16.85;100.00;99454.73;109006;1257;68940;-60
2023/08/27 03:27:55;;;;;;;10.00;3.90;;;;;;;16.82;100.00;99458.56;109115;1257;73743;-59
2023/08/27 03:30:42;;;;;;;9.10;4.00;;;;;;;16.82;100.00;99458.09;109085;1259;58944;-59
2023/08/27 03:33:31;;;;;;;8.70;3.90;;;;;;;16.81;100.00;99457.83;109075;1257;58856;-60
2023/08/27 03:36:17;;;;;;;8.80;3.90;;;;;;;16.82;100.00;99453.45;109125;1257;72233;-59
2023/08/27 03:39:04;;;;;;;9.20;4.00;;;;;;;16.81;100.00;99448.91;109139;1257;67755;-60
2023/08/27 03:41:50;;;;;;;9.00;4.10;;;;;;;16.81;100.00;99452.84;109072;1257;73458;-63
2023/08/27 03:44:36;;;;;;;10.70;4.80;;;;;;;16.80;100.00;99448.50;109049;1258;59768;-59
2023/08/27 03:47:23;;;;;;;10.50;4.20;;;;;;;16.80;100.00;99440.98;109048;1261;60322;-59
2023/08/27 03:50:09;;;;;;;8.40;4.20;;;;;;;16.78;100.00;99427.19;109041;1259;72771;-58
2023/08/27 03:52:55;;;;;;;9.40;4.10;;;;;;;16.80;100.00;99424.86;109077;1258;67913;-59
2023/08/27 03:55:42;;;;;;;8.50;4.20;;;;;;;16.80;100.00;99429.11;109056;1258;72754;-60
2023/08/27 03:58:28;;;;;;;9.10;4.10;;;;;;;16.80;100.00;99436.06;109002;1258;60673;-59
2023/08/27 04:01:14;;;;;;;9.80;4.40;;;;;;;16.79;100.00;99441.99;109105;1258;60257;-60
2023/08/27 04:04:03;;;;;;;8.70;4.10;;;;;;;16.77;100.00;99441.70;109044;1258;71427;-61
2023/08/27 04:06:49;;;;;;;8.40;4.00;;;;;;;16.77;100.00;99449.86;108902;1258;68870;-61
2023/08/27 04:09:35;;;;;;;9.00;3.80;;;;;;;16.78;100.00;99448.73;109032;1258;72729;-62
2023/08/27 04:12:22;;;;;;;9.40;4.20;;;;;;;16.76;100.00;99449.66;108973;1259;59584;-64
2023/08/27 04:15:09;;;;;;;9.30;3.80;;;;;;;16.73;100.00;99443.57;108938;1258;60240;-62
2023/08/27 04:17:57;;;;;;;9.10;3.90;;;;;;;16.71;100.00;99436.76;109019;1258;74059;-62
2023/08/27 04:20:43;;;;;;;8.30;3.60;;;;;;;16.74;100.00;99438.75;109014;1258;68729;-60
2023/08/27 04:23:29;;;;;;;10.20;3.80;;;;;;;16.77;100.00;99458.46;108979;1258;73661;-62
2023/08/27 04:26:15;;;;;;;10.30;3.90;;;;;;;16.75;100.00;99462.79;108989;1258;59932;-61
2023/08/27 04:29:02;;;;;;;8.40;3.80;;;;;;;16.77;100.00;99458.52;108959;1258;58982;-61
2023/08/27 04:31:48;;;;;;;7.60;3.60;;;;;;;16.80;100.00;99432.48;108969;1260;73927;-65
2023/08/27 04:34:34;;;;;;;8.50;3.80;;;;;;;16.88;100.00;99423.76;108955;1259;67993;-62
2023/08/27 04:37:21;;;;;;;7.50;3.30;;;;;;;16.94;100.00;99439.86;108966;1259;73495;-61
2023/08/27 04:40:08;;;;;;;8.30;3.10;;;;;;;16.96;100.00;99446.14;108933;1259;59686;-59
2023/08/27 04:42:57;;;;;;;8.30;3.40;;;;;;;16.98;100.00;99450.73;108928;1259;60608;-62
2023/08/27 04:45:44;;;;;;;9.90;3.60;;;;;;;17.01;100.00;99457.23;108973;1259;72991;-59
2023/08/27 04:48:30;;;;;;;10.40;3.40;;;;;;;17.03;100.00;99457.90;108948;1260;67788;-59
2023/08/27 04:51:17;;;;;;;9.40;3.10;;;;;;;17.08;100.00;99459.27;108940;1259;72579;-62
2023/08/27 04:54:03;;;;;;;6.80;2.40;;;;;;;17.13;100.00;99461.19;108953;1260;59493;-62
2023/08/27 04:56:49;;;;;;;7.60;2.80;;;;;;;17.18;99.87;99445.61;108931;1259;61334;-61
2023/08/27 04:59:36;;;;;;;8.00;2.90;;;;;;;17.21;99.75;99446.00;108965;1260;72898;-62
2023/08/27 05:02:23;;;;;;;7.90;2.50;;;;;;;17.23;99.66;99445.17;109011;1259;68686;-64
2023/08/27 05:05:09;;;;;;;7.60;2.40;;;;;;;17.20;98.92;99446.64;109017;1258;70316;-62
2023/08/27 05:07:55;;;;;;;8.30;2.60;;;;;;;17.18;99.09;99443.11;108998;1258;57615;-61
2023/08/27 05:10:41;;;;;;;6.70;2.60;;;;;;;17.17;98.56;99444.95;109037;1258;61312;-62
2023/08/27 05:13:28;;;;;;;9.00;2.60;;;;;;;17.17;98.38;99438.52;109026;1258;71940;-60
2023/08/27 05:16:14;;;;;;;8.00;2.60;;;;;;;17.16;98.36;99440.31;109040;1258;67602;-60
2023/08/27 05:19:01;;;;;;;6.60;2.30;;;;;;;17.14;98.13;99446.23;109016;1258;72557;-63
2023/08/27 05:21:47;;;;;;;6.40;2.20;;;;;;;17.16;98.34;99447.14;108982;1258;59620;-63
2023/08/27 05:24:34;;;;;;;6.50;2.20;;;;;;;17.17;98.29;99437.45;109078;1258;61620;-63
2023/08/27 05:27:21;;;;;;;8.10;2.70;;;;;;;17.18;97.38;99426.95;109010;1258;73836;-63
2023/08/27 05:30:08;;;;;;;7.60;2.50;;;;;;;17.21;97.63;99418.41;109045;1258;67822;-62
2023/08/27 05:32:54;;;;;;;7.90;2.50;;;;;;;17.26;97.29;99403.98;109033;1258;73598;-64
2023/08/27 05:35:42;;;;;;;6.50;2.40;;;;;;;17.32;97.31;99407.60;108984;1258;57579;-65
2023/08/27 05:38:28;;;;;;;9.00;2.30;;;;;;;17.40;97.61;99412.92;109076;1258;61584;-63
2023/08/27 05:41:14;;;;;;;7.90;2.40;;;;;;;17.46;96.57;99422.51;108971;1258;73899;-62
2023/08/27 05:44:01;;;;;;;9.00;2.60;;;;;;;17.44;96.04;99433.81;109058;1257;67887;-61
2023/08/27 05:46:48;;;;;;;8.70;2.70;;;;;;;17.40;95.95;99434.32;109099;1257;73798;-63
2023/08/27 05:49:34;;;;;;;6.60;2.60;;;;;;;17.36;96.31;99433.16;109081;1257;59296;-61
2023/08/27 05:52:20;;;;;;;6.90;2.70;;;;;;;17.33;96.69;99438.63;109106;1257;60068;-62
2023/08/27 05:55:07;;;;;;;13.70;7.40;;;;;;;17.35;96.95;99433.02;109051;1257;73861;-61
2023/08/27 05:57:53;;;;;;;7.30;2.90;;;;;;;17.42;97.18;99431.04;109099;1257;68865;-60
2023/08/27 06:00:40;;;;;;;7.50;2.80;;;;;;;17.54;97.03;99448.67;109037;1257;71230;-71
2023/08/27 06:03:26;;;;;;;7.50;2.50;;;;;;;17.65;96.18;99460.55;109018;1257;57490;-72
2023/08/27 06:06:13;;;;;;;6.80;2.40;;;;;;;17.73;95.47;99476.38;109079;1257;61101;-71
2023/08/27 06:08:59;;;;;;;6.90;2.40;;;;;;;17.78;95.16;99477.91;109083;1257;72953;-73
2023/08/27 06:11:45;;;;;;;7.80;2.80;;;;;;;17.89;94.45;99473.99;109087;1257;68183;-73
2023/08/27 06:14:32;;;;;;;6.00;2.20;;;;;;;18.01;93.63;99464.66;109057;1258;72578;-72
2023/08/27 06:17:18;;;;;;;7.30;2.40;;;;;;;18.19;92.98;99459.67;108977;1257;59345;-73
2023/08/27 06:20:07;;;;;;;8.20;2.40;;;;;;;18.45;91.65;99458.48;109095;1257;60116;-71
2023/08/27 06:22:53;;;;;;;5.90;1.90;;;;;;;18.69;90.61;99444.85;109031;1257;71423;-71
2023/08/27 06:25:40;;;;;;;6.00;2.20;;;;;;;18.90;89.73;99409.63;109003;1257;67901;-72
2023/08/27 06:28:26;;;;;;;7.50;2.20;;;;;;;19.24;88.82;99404.58;109057;1257;73801;-73
2023/08/27 06:31:13;;;;;;;8.00;2.50;;;;;;;19.49;86.63;99405.20;108992;1257;57225;-74
2023/08/27 06:34:03;;;;;;;8.70;2.10;;;;;;;19.73;85.34;99424.36;109057;1257;60258;-75
2023/08/27 06:36:50;;;;;;;6.60;2.00;;;;;;;19.98;83.81;99435.20;108945;1258;73801;-73
2023/08/27 06:39:37;;;;;;;7.90;1.80;;;;;;;20.25;81.43;99437.93;109076;1259;66915;-72
2023/08/27 06:42:23;;;;;;;6.60;1.50;;;;;;;20.59;79.94;99454.68;108813;1259;194729;-71
2023/08/27 06:45:11;;;;;;;6.10;1.70;;;;;;;21.38;76.54;99456.80;108910;1257;57931;-59
2023/08/27 06:47:57;;;;;;;6.90;1.60;;;;;;;21.54;73.75;99464.98;109105;1257;58982;-57
2023/08/27 06:50:45;;;;;;;7.00;1.70;;;;;;;21.40;73.28;99474.58;109096;1257;74038;-68
2023/08/27 06:53:32;;;;;;;6.50;1.60;;;;;;;21.16;73.42;99470.73;109074;1257;66610;-59
2023/08/27 06:56:19;;;;;;;6.90;1.60;;;;;;;20.94;73.02;99462.52;109067;1257;72648;-63
2023/08/27 06:59:05;;;;;;;5.60;1.50;;;;;;;20.73;73.91;99453.98;109085;1258;59092;-62
2023/08/27 07:01:52;;;;;;;8.20;1.90;;;;;;;20.68;74.40;99456.90;109064;1257;58923;-61
2023/08/27 07:04:39;;;;;;;5.50;1.60;;;;;;;20.95;74.15;99459.52;108994;1257;74135;-61
2023/08/27 07:07:26;;;;;;;6.10;1.60;;;;;;;21.31;73.22;99463.16;109091;1257;67804;-62
2023/08/27 07:10:13;;;;;;;5.70;1.50;;;;;;;22.38;69.56;99453.69;109100;1257;70255;-63
2023/08/27 07:13:01;;;;;;;7.00;1.70;;;;;;;23.50;64.02;99440.42;109096;1257;57303;-62
2023/08/27 07:15:47;;;;;;;6.10;1.30;;;;;;;24.82;59.61;99435.19;109005;1260;61152;-63
2023/08/27 07:18:34;;;;;;;6.90;1.60;;;;;;;25.81;55.74;99438.71;109116;1257;74259;-70
2023/08/27 07:21:22;;;;;;;6.10;1.30;;;;;;;27.58;50.89;99438.13;109007;1262;68378;-68
2023/08/27 07:24:08;;;;;;;5.90;1.40;;;;;;;29.09;45.78;99428.61;109106;1257;72426;-68
2023/08/27 07:26:54;;;;;;;4.60;1.00;;;;;;;30.51;41.65;99416.13;108970;1258;58000;-67
2023/08/27 07:29:41;;;;;;;5.30;1.10;;;;;;;31.44;38.78;99393.48;109036;1257;60508;-68
2023/08/27 07:32:27;;;;;;;4.30;1.00;;;;;;;31.34;37.34;99399.20;109077;1257;72962;-67
2023/08/27 07:35:13;;;;;;;5.10;1.10;;;;;;;31.97;36.32;99415.16;109050;1257;67876;-70
2023/08/27 07:38:00;;;;;;;5.50;1.10;;;;;;;32.61;34.95;99420.16;109091;1258;72658;-68
2023/08/27 07:40:47;;;;;;;6.30;1.20;;;;;;;33.24;33.72;99424.29;108923;1258;57714;-67
2023/08/27 07:43:34;;;;;;;5.70;1.30;;;;;;;33.86;32.89;99420.39;109075;1258;58902;-68
2023/08/27 07:46:20;;;;;;;4.90;0.90;;;;;;;34.15;31.14;99426.11;109039;1258;71749;-67
2023/08/27 07:49:06;;;;;;;5.20;1.00;;;;;;;33.46;31.72;99433.73;109084;1258;67789;-67
2023/08/27 07:51:53;;;;;;;5.90;1.20;;;;;;;32.66;32.66;99433.96;108994;1258;72511;-66
2023/08/27 07:54:39;;;;;;;5.00;1.00;;;;;;;32.77;32.30;99433.00;108996;1258;58922;-67
2023/08/27 07:57:26;;;;;;;7.00;1.00;;;;;;;33.43;31.50;99426.15;108936;1260;60131;-68
2023/08/27 08:00:13;;;;;;;5.20;1.30;;;;;;;33.44;31.04;99425.27;108962;1260;74034;-70
2023/08/27 08:02:59;;;;;;;7.10;1.00;;;;;;;33.72;30.91;99418.65;108978;1261;67692;-71
2023/08/27 08:05:48;;;;;;;6.80;1.20;;;;;;;34.28;30.42;99418.59;108944;1260;73721;-68
2023/08/27 08:08:35;;;;;;;5.80;1.20;;;;;;;34.57;29.90;99428.92;108940;1259;57770;-67
2023/08/27 08:11:21;;;;;;;4.80;1.00;;;;;;;35.19;28.68;99429.02;108980;1260;60296;-68
2023/08/27 08:14:07;;;;;;;5.20;1.00;;;;;;;35.84;27.86;99429.33;108978;1260;74046;-68
2023/08/27 08:16:57;;;;;;;5.40;1.10;;;;;;;35.91;27.47;99424.77;108909;1260;67641;-69
2023/08/27 08:19:43;;;;;;;5.70;1.00;;;;;;;34.78;28.20;99427.05;108942;1260;71476;-68
2023/08/27 08:22:29;;;;;;;4.70;0.90;;;;;;;33.56;30.04;99420.25;108942;1261;59053;-69
2023/08/27 08:25:15;;;;;;;5.90;1.50;;;;;;;32.51;32.16;99412.15;108951;1260;58868;-67
2023/08/27 08:28:05;;;;;;;6.70;1.40;;;;;;;31.53;33.03;99403.94;108973;1260;74512;-68
2023/08/27 08:30:51;;;;;;;5.20;1.40;;;;;;;30.87;33.90;99410.42;108997;1258;67757;-68
2023/08/27 08:33:37;;;;;;;5.60;1.10;;;;;;;30.21;34.84;99413.83;108944;1258;73700;-69
2023/08/27 08:36:24;;;;;;;6.00;1.20;;;;;;;29.40;36.44;99407.52;108994;1258;59250;-66
2023/08/27 08:39:10;;;;;;;6.60;1.50;;;;;;;28.53;38.16;99413.70;108985;1258;60383;-70
2023/08/27 08:42:14;;;;;;;5.50;1.60;;;;;;;27.88;40.19;99413.83;109017;1258;71581;-66
2023/08/27 08:45:33;;;;;;;5.50;1.40;;;;;;;27.33;40.67;99417.58;108966;1258;67375;-65
2023/08/27 08:48:22;;;;;;;5.60;1.40;;;;;;;26.91;41.59;99418.20;109037;1258;71281;-68
2023/08/27 08:51:13;;;;;;;5.50;1.30;;;;;;;26.79;41.83;99411.31;108963;1258;59062;-71
2023/08/27 08:54:05;;;;;;;5.80;1.60;;;;;;;27.29;41.67;99402.59;108982;1258;61413;-69
2023/08/27 08:56:54;;;;;;;7.10;2.20;;;;;;;28.10;39.94;99403.95;108987;1259;73289;-72
2023/08/27 08:59:41;;;;;;;8.70;4.20;;;;;;;28.81;38.00;99407.33;109027;1258;67796;-72
2023/08/27 09:02:28;;;;;;;11.10;4.60;;;;;;;29.36;37.94;99415.29;108883;1258;71368;-72
2023/08/27 09:05:17;;;;;;;6.30;1.70;;;;;;;29.83;37.04;99415.64;108977;1258;57317;-68
2023/08/27 09:08:05;;;;;;;6.00;1.40;;;;;;;30.92;35.15;99411.36;109006;1258;60221;-74
2023/08/27 09:10:52;;;;;;;5.80;1.40;;;;;;;32.30;32.60;99417.03;109076;1258;73084;-69
2023/08/27 09:13:39;;;;;;;5.90;1.40;;;;;;;33.61;29.95;99427.23;109084;1257;66492;-71
2023/08/27 09:16:27;;;;;;;6.00;1.50;;;;;;;34.76;27.93;99424.27;109109;1257;71142;-69
2023/08/27 09:19:13;;;;;;;7.20;1.30;;;;;;;35.85;25.34;99410.64;109046;1260;57492;-70
2023/08/27 09:22:02;;;;;;;5.90;1.00;;;;;;;36.53;24.65;99414.65;109068;1257;60455;-69
2023/08/27 09:24:48;;;;;;;6.40;1.20;;;;;;;37.23;24.06;99408.23;109059;1260;71673;-69
2023/08/27 09:27:35;;;;;;;5.60;1.20;;;;;;;37.01;23.69;99407.27;109035;1258;66959;-70
2023/08/27 09:30:22;;;;;;;7.10;1.10;;;;;;;35.71;25.08;99414.94;108905;1258;73430;-68
2023/08/27 09:33:08;;;;;;;5.30;1.20;;;;;;;34.48;26.66;99412.39;108940;1260;57689;-69
2023/08/27 09:35:55;;;;;;;6.20;1.10;;;;;;;33.39;27.67;99416.84;109089;1257;59761;-72
2023/08/27 09:38:44;;;;;;;6.00;1.40;;;;;;;32.67;29.01;99421.30;109038;1257;73807;-70
2023/08/27 09:41:30;;;;;;;6.40;1.50;;;;;;;32.44;30.11;99414.42;108999;1257;65912;-71
2023/08/27 09:44:17;;;;;;;5.80;1.50;;;;;;;32.30;31.02;99417.60;109093;1257;72581;-70
2023/08/27 09:47:05;;;;;;;6.40;1.30;;;;;;;31.95;31.94;99425.02;109118;1258;57985;-67
2023/08/27 09:49:51;;;;;;;6.70;1.40;;;;;;;31.53;33.49;99414.33;109001;1260;61158;-68
2023/08/27 09:52:38;;;;;;;6.40;1.50;;;;;;;31.39;33.45;99406.73;109025;1258;72917;-67
2023/08/27 09:55:24;;;;;;;6.80;1.20;;;;;;;31.56;34.10;99401.30;108986;1258;68886;-69
2023/08/27 09:58:12;;;;;;;6.60;1.60;;;;;;;31.75;33.64;99411.00;108989;1258;71395;-67
2023/08/27 10:01:00;;;;;;;5.50;1.20;;;;;;;32.70;32.26;99414.40;108973;1258;57971;-68
2023/08/27 10:03:48;;;;;;;6.30;1.60;;;;;;;32.78;31.61;99424.83;109055;1258;60148;-67
2023/08/27 10:06:36;;;;;;;6.90;1.60;;;;;;;32.62;31.38;99411.17;108969;1259;73773;-66
2023/08/27 10:09:22;;;;;;;5.90;1.40;;;;;;;33.25;30.53;99398.96;109005;1259;67933;-68
2023/08/27 10:12:11;;;;;;;5.00;1.20;;;;;;;33.43;29.21;99414.23;108957;1258;71552;-68
2023/08/27 10:14:59;;;;;;;5.80;1.30;;;;;;;32.84;30.08;99413.14;108950;1258;58020;-71
2023/08/27 10:17:46;;;;;;;5.30;1.40;;;;;;;32.88;29.68;99410.52;109009;1258;58717;-68
2023/08/27 10:20:32;;;;;;;6.10;1.30;;;;;;;33.29;30.09;99420.60;109024;1258;72999;-69
2023/08/27 10:23:19;;;;;;;6.10;1.50;;;;;;;33.73;29.65;99427.02;109018;1258;68256;-67
2023/08/27 10:26:06;;;;;;;6.10;1.30;;;;;;;33.87;29.82;99432.60;109026;1258;73494;-68
2023/08/27 10:28:53;;;;;;;5.30;1.50;;;;;;;33.36;29.87;99423.27;108969;1258;57491;-70
2023/08/27 10:31:39;;;;;;;5.20;1.40;;;;;;;32.34;30.74;99421.39;109010;1259;61526;-69
2023/08/27 10:34:30;;;;;;;7.90;3.50;;;;;;;31.40;32.53;99429.38;109082;1258;72826;-68
2023/08/27 10:37:19;;;;;;;6.30;1.60;;;;;;;30.53;34.16;99426.36;108969;1259;68749;-68
2023/08/27 10:40:09;;;;;;;5.40;1.40;;;;;;;30.26;35.42;99427.48;109009;1258;73447;-67
2023/08/27 10:43:16;;;;;;;5.00;1.00;;;;;;;30.55;34.92;99422.22;108936;1258;57689;-70
2023/08/27 10:46:16;;;;;;;5.40;1.20;;;;;;;30.92;33.56;99402.10;109001;1259;61559;-71
2023/08/27 10:49:17;;;;;;;6.00;1.30;;;;;;;31.62;31.70;99395.37;108892;1259;72953;-70
2023/08/27 10:52:21;;;;;;;5.40;1.10;;;;;;;32.24;30.73;99390.91;109004;1259;67856;-69
2023/08/27 10:55:07;;;;;;;5.40;1.20;;;;;;;32.20;29.94;99392.42;108946;1259;73027;-73
2023/08/27 10:58:15;;;;;;;5.40;1.20;;;;;;;32.08;30.15;99404.19;108905;1259;57993;-70
2023/08/27 11:01:10;;;;;;;5.40;1.10;;;;;;;31.98;29.79;99404.92;109000;1259;58842;-69
2023/08/27 11:04:04;;;;;;;5.50;1.20;;;;;;;32.69;29.06;99405.70;108914;1259;73068;-69
2023/08/27 11:06:50;;;;;;;5.00;1.00;;;;;;;33.06;28.48;99403.04;108993;1259;68871;-68
2023/08/27 11:09:56;;;;;;;6.20;1.20;;;;;;;32.75;28.75;99400.77;108956;1259;72553;-70
2023/08/27 11:12:43;;;;;;;4.70;1.00;;;;;;;31.90;29.65;99400.26;108885;1259;57765;-70
2023/08/27 11:15:32;;;;;;;5.70;1.20;;;;;;;31.10;30.35;99399.41;108991;1259;61147;-70
2023/08/27 11:18:21;;;;;;;7.90;1.00;;;;;;;30.22;31.03;99399.57;109012;1258;72762;-69
2023/08/27 11:21:42;;;;;;;5.40;1.10;;;;;;;29.44;32.18;99395.98;109029;1259;67711;-67
2023/08/27 11:24:28;;;;;;;5.50;1.10;;;;;;;28.62;34.12;99392.13;108966;1259;73439;-68
2023/08/27 11:27:17;;;;;;;5.90;1.50;;;;;;;28.07;35.29;99386.02;108935;1259;59256;-70
2023/08/27 11:30:06;;;;;;;6.30;1.20;;;;;;;27.56;36.03;99384.61;108973;1258;60223;-67
2023/08/27 11:32:56;;;;;;;4.90;1.30;;;;;;;27.07;36.95;99375.98;108984;1258;71580;-72
2023/08/27 11:35:43;;;;;;;7.10;1.30;;;;;;;26.61;39.12;99385.65;109009;1257;67909;-69
2023/08/27 11:38:29;;;;;;;6.80;1.10;;;;;;;26.25;40.19;99389.18;108995;1257;73620;-68
2023/08/27 11:41:15;;;;;;;5.60;1.30;;;;;;;25.95;40.31;99387.67;109013;1258;57775;-68
2023/08/27 11:44:08;;;;;;;5.30;1.20;;;;;;;25.69;40.85;99379.48;109112;1257;60166;-69
2023/08/27 11:47:05;;;;;;;5.80;1.20;;;;;;;25.43;41.27;99385.32;109026;1260;73003;-66
2023/08/27 11:49:56;;;;;;;5.50;1.40;;;;;;;25.21;41.11;99390.19;109003;1257;66741;-68
2023/08/27 11:52:43;;;;;;;5.80;1.30;;;;;;;25.06;41.55;99384.16;109099;1257;71430;-68
2023/08/27 11:55:30;;;;;;;5.10;1.30;;;;;;;24.97;42.46;99384.91;109094;1257;57583;-66
2023/08/27 11:58:18;;;;;;;5.00;1.20;;;;;;;24.89;42.81;99384.30;109064;1258;61266;-69
2023/08/27 12:01:04;;;;;;;8.10;1.70;;;;;;;24.78;42.84;99385.88;109096;1257;71636;-69
2023/08/27 12:03:52;;;;;;;6.00;1.20;;;;;;;24.73;43.08;99377.17;109061;1257;67945;-67
2023/08/27 12:06:54;;;;;;;6.30;1.50;;;;;;;24.71;43.84;99366.41;109094;1257;72538;-66
2023/08/27 12:09:50;;;;;;;5.70;1.30;;;;;;;24.73;44.40;99365.55;109004;1258;57716;-66
2023/08/27 12:12:40;;;;;;;5.60;1.80;;;;;;;24.78;45.45;99366.48;109078;1258;60125;-67
2023/08/27 12:15:30;;;;;;;6.40;1.60;;;;;;;24.81;46.01;99370.93;109097;1257;72978;-68
2023/08/27 12:18:16;;;;;;;7.30;1.70;;;;;;;24.97;47.09;99370.96;108974;1257;67703;-67
2023/08/27 12:21:07;;;;;;;9.60;4.30;;;;;;;25.07;47.13;99372.88;108997;1257;72461;-66
2023/08/27 12:23:53;;;;;;;6.90;2.10;;;;;;;25.17;47.57;99360.73;109050;1257;57848;-66
2023/08/27 12:26:39;;;;;;;6.90;1.60;;;;;;;25.26;48.01;99349.85;109023;1258;60204;-68
2023/08/27 12:29:31;;;;;;;6.10;1.80;;;;;;;25.28;48.67;99353.88;109059;1260;70645;-68
2023/08/27 12:32:19;;;;;;;7.30;1.70;;;;;;;25.29;48.68;99352.11;109119;1258;66466;-67
2023/08/27 12:35:07;;;;;;;6.30;1.60;;;;;;;25.28;49.38;99347.02;108970;1257;72722;-66
2023/08/27 12:37:53;;;;;;;8.90;1.90;;;;;;;25.25;49.82;99334.42;108943;1257;58892;-67
2023/08/27 12:40:40;;;;;;;7.30;1.50;;;;;;;25.15;50.24;99329.77;109068;1258;59949;-68
2023/08/27 12:43:27;;;;;;;6.20;1.90;;;;;;;25.04;50.55;99320.28;109060;1257;72872;-68
2023/08/27 12:46:13;;;;;;;6.10;1.60;;;;;;;24.87;50.63;99319.23;109063;1257;69282;-68
2023/08/27 12:48:59;;;;;;;7.00;1.70;;;;;;;24.61;51.03;99318.23;109014;1257;72727;-67
2023/08/27 12:51:46;;;;;;;6.10;1.60;;;;;;;24.43;51.51;99303.02;109017;1257;57745;-67
2023/08/27 12:54:33;;;;;;;5.80;1.50;;;;;;;24.30;51.25;99309.63;108962;1257;61252;-68